createdAt,value
2022-11-12T00:00:10.288Z,49.10
2022-11-12T00:02:36.747Z,49.40
2022-11-12T00:05:03.219Z,49.10
2022-11-12T00:07:29.682Z,49.40
2022-11-12T00:09:56.155Z,49.40
2022-11-12T00:12:22.644Z,49.30
2022-11-12T00:14:49.124Z,49.40
2022-11-12T00:17:15.546Z,49.30
2022-11-12T00:19:42.014Z,49.50
2022-11-12T00:22:08.478Z,49.30
2022-11-12T00:24:34.967Z,49.30
2022-11-12T00:27:01.423Z,49.20
2022-11-12T00:29:27.907Z,49.30
2022-11-12T00:31:54.362Z,49.30
2022-11-12T00:34:20.827Z,49.20
2022-11-12T00:36:47.296Z,49.30
2022-11-12T00:39:13.785Z,49.30
2022-11-12T00:41:40.248Z,49.30
2022-11-12T00:44:06.739Z,49.20
2022-11-12T00:46:33.210Z,49.30
2022-11-12T00:48:59.696Z,49.20
2022-11-12T00:51:26.148Z,49.20
2022-11-12T00:53:52.594Z,49.20
2022-11-12T00:56:19.045Z,49.20
2022-11-12T00:58:45.509Z,49.20
2022-11-12T01:01:12.017Z,49.20
2022-11-12T01:03:38.564Z,49.10
2022-11-12T01:06:05.030Z,49.00
2022-11-12T01:08:31.507Z,49.20
2022-11-12T01:10:57.996Z,49.20
2022-11-12T01:13:24.459Z,49.10
2022-11-12T01:15:50.947Z,49.20
2022-11-12T01:18:17.422Z,49.00
2022-11-12T01:20:43.882Z,49.20
2022-11-12T01:23:10.336Z,49.10
2022-11-12T01:25:36.793Z,49.10
2022-11-12T01:28:03.263Z,49.20
2022-11-12T01:30:29.714Z,49.20
2022-11-12T01:32:56.169Z,49.10
2022-11-12T01:35:22.644Z,49.10
2022-11-12T01:37:49.065Z,49.00
2022-11-12T01:40:15.535Z,49.00
2022-11-12T01:42:41.994Z,49.00
2022-11-12T01:45:08.472Z,49.00
2022-11-12T01:47:34.939Z,49.00
2022-11-12T01:50:01.464Z,48.90
2022-11-12T01:52:27.946Z,48.80
2022-11-12T01:54:54.420Z,48.90
2022-11-12T01:57:20.893Z,48.80
2022-11-12T01:59:47.362Z,48.80
2022-11-12T02:02:13.830Z,48.70
2022-11-12T02:04:40.288Z,48.70
2022-11-12T02:07:06.871Z,48.70
2022-11-12T02:09:33.358Z,48.80
2022-11-12T02:11:59.820Z,48.70
2022-11-12T02:14:26.288Z,48.70
2022-11-12T02:16:52.736Z,48.60
2022-11-12T02:19:19.231Z,48.60
2022-11-12T02:21:45.689Z,48.60
2022-11-12T02:24:12.166Z,48.60
2022-11-12T02:26:38.631Z,48.60
2022-11-12T02:29:05.113Z,48.50
2022-11-12T02:31:31.587Z,48.50
2022-11-12T02:33:58.061Z,48.70
2022-11-12T02:36:24.533Z,48.60
2022-11-12T02:38:50.985Z,48.60
2022-11-12T02:41:17.438Z,48.60
2022-11-12T02:43:43.899Z,48.60
2022-11-12T02:46:10.362Z,48.40
2022-11-12T02:48:36.823Z,48.50
2022-11-12T02:51:03.295Z,48.40
2022-11-12T02:53:29.770Z,48.40
2022-11-12T02:55:56.231Z,48.40
2022-11-12T02:58:22.890Z,48.40
2022-11-12T03:00:49.508Z,48.30
2022-11-12T03:03:15.987Z,48.30
2022-11-12T03:05:42.455Z,48.40
2022-11-12T03:08:08.926Z,48.50
2022-11-12T03:10:35.402Z,48.40
2022-11-12T03:13:01.888Z,48.30
2022-11-12T03:15:28.361Z,48.30
2022-11-12T03:17:54.849Z,48.20
2022-11-12T03:20:21.300Z,48.20
2022-11-12T03:22:47.756Z,48.20
2022-11-12T03:25:14.219Z,48.10
2022-11-12T03:27:40.679Z,48.00
2022-11-12T03:30:07.159Z,48.00
2022-11-12T03:32:33.613Z,48.10
2022-11-12T03:35:00.080Z,48.10
2022-11-12T03:37:26.546Z,48.00
2022-11-12T03:39:52.996Z,48.10
2022-11-12T03:42:19.458Z,48.20
2022-11-12T03:44:45.951Z,48.10
2022-11-12T03:47:12.395Z,48.00
2022-11-12T03:49:38.886Z,48.10
2022-11-12T03:52:05.356Z,48.10
2022-11-12T03:54:31.818Z,48.00
2022-11-12T03:56:58.278Z,48.00
2022-11-12T03:59:24.779Z,48.00
2022-11-12T04:01:51.256Z,47.90
2022-11-12T04:04:17.739Z,47.80
2022-11-12T04:06:44.246Z,47.80
2022-11-12T04:09:10.768Z,47.70
2022-11-12T04:11:37.228Z,47.70
2022-11-12T04:14:03.696Z,47.50
2022-11-12T04:16:30.180Z,47.60
2022-11-12T04:18:56.630Z,47.50
2022-11-12T04:21:23.089Z,47.70
2022-11-12T04:23:49.549Z,47.50
2022-11-12T04:26:16.009Z,47.50
2022-11-12T04:28:42.451Z,47.50
2022-11-12T04:31:08.925Z,47.50
2022-11-12T04:33:35.393Z,47.50
2022-11-12T04:36:01.857Z,47.40
2022-11-12T04:38:28.733Z,47.60
2022-11-12T04:40:55.498Z,47.50
2022-11-12T04:43:21.963Z,47.60
2022-11-12T04:45:48.435Z,47.50
2022-11-12T04:48:14.901Z,47.50
2022-11-12T04:50:41.360Z,47.50
2022-11-12T04:53:07.829Z,47.40
2022-11-12T04:55:34.290Z,47.50
2022-11-12T04:58:01.160Z,47.40
2022-11-12T05:00:29.003Z,47.40
2022-11-12T05:02:55.481Z,47.40
2022-11-12T05:05:21.952Z,47.50
2022-11-12T05:07:48.472Z,47.60
2022-11-12T05:10:14.955Z,47.50
2022-11-12T05:12:47.105Z,47.40
2022-11-12T05:15:13.585Z,47.40
2022-11-12T05:17:40.052Z,47.30
2022-11-12T05:20:06.516Z,47.30
2022-11-12T05:22:44.277Z,47.30
2022-11-12T05:25:12.300Z,47.30
2022-11-12T05:27:38.765Z,47.30
2022-11-12T05:30:05.241Z,47.30
2022-11-12T05:32:31.689Z,47.30
2022-11-12T05:34:58.151Z,47.10
2022-11-12T05:37:24.618Z,47.20
2022-11-12T05:39:51.091Z,47.20
2022-11-12T05:42:17.566Z,47.10
2022-11-12T05:44:44.049Z,47.20
2022-11-12T05:47:10.509Z,47.20
2022-11-12T05:49:41.034Z,47.30
2022-11-12T05:52:07.526Z,47.30
2022-11-12T05:54:33.996Z,47.20
2022-11-12T05:57:00.468Z,47.10
2022-11-12T05:59:26.931Z,47.10
2022-11-12T06:01:53.385Z,47.10
2022-11-12T06:04:23.051Z,47.00
2022-11-12T06:06:49.547Z,47.10
2022-11-12T06:09:16.052Z,47.10
2022-11-12T06:11:42.527Z,47.00
2022-11-12T06:14:11.063Z,47.00
2022-11-12T06:16:37.521Z,47.00
2022-11-12T06:19:04.006Z,47.00
2022-11-12T06:21:30.474Z,47.00
2022-11-12T06:23:57.086Z,47.00
2022-11-12T06:26:23.549Z,47.10
2022-11-12T06:28:50.084Z,47.00
2022-11-12T06:31:16.554Z,46.90
2022-11-12T06:33:43.006Z,46.80
2022-11-12T06:36:11.087Z,46.80
2022-11-12T06:38:37.555Z,46.80
2022-11-12T06:41:04.010Z,46.80
2022-11-12T06:43:30.460Z,46.80
2022-11-12T06:45:56.923Z,46.70
2022-11-12T06:48:29.283Z,46.70
2022-11-12T06:50:55.751Z,46.70
2022-11-12T06:53:22.221Z,46.80
2022-11-12T06:55:48.696Z,46.70
2022-11-12T06:58:15.169Z,46.70
2022-11-12T07:00:41.643Z,46.60
2022-11-12T07:03:08.095Z,46.70
2022-11-12T07:05:34.560Z,46.60
2022-11-12T07:08:01.040Z,46.70
2022-11-12T07:10:27.504Z,46.60
2022-11-12T07:12:53.954Z,46.50
2022-11-12T07:15:20.418Z,46.50
2022-11-12T07:17:46.881Z,46.50
2022-11-12T07:20:13.353Z,46.40
2022-11-12T07:22:39.843Z,46.50
2022-11-12T07:25:06.322Z,46.40
2022-11-12T07:27:32.787Z,46.30
2022-11-12T07:29:59.265Z,46.40
2022-11-12T07:32:25.721Z,46.30
2022-11-12T07:34:52.187Z,46.40
2022-11-12T07:37:18.672Z,46.50
2022-11-12T07:39:45.131Z,46.50
2022-11-12T07:42:11.604Z,46.40
2022-11-12T07:44:38.071Z,46.40
2022-11-12T07:47:04.530Z,46.40
2022-11-12T07:49:31.002Z,46.40
2022-11-12T07:51:57.458Z,46.40
2022-11-12T07:54:23.959Z,46.50
2022-11-12T07:56:50.424Z,46.50
2022-11-12T07:59:16.912Z,46.60
2022-11-12T08:01:47.399Z,46.60
2022-11-12T08:04:13.906Z,46.70
2022-11-12T08:06:40.508Z,46.70
2022-11-12T08:09:07.140Z,46.60
2022-11-12T08:11:33.617Z,46.70
2022-11-12T08:14:00.097Z,46.60
2022-11-12T08:16:26.553Z,46.60
2022-11-12T08:18:53.045Z,46.60
2022-11-12T08:21:19.523Z,46.70
2022-11-12T08:23:46.009Z,46.70
2022-11-12T08:26:12.483Z,46.70
2022-11-12T08:28:38.952Z,46.70
2022-11-12T08:31:05.425Z,46.70
2022-11-12T08:33:31.862Z,46.60
2022-11-12T08:35:58.344Z,46.70
2022-11-12T08:38:25.080Z,46.70
2022-11-12T08:40:51.843Z,46.70
2022-11-12T08:43:18.311Z,46.70
2022-11-12T08:45:44.780Z,46.70
2022-11-12T08:48:11.223Z,46.80
2022-11-12T08:50:37.878Z,46.80
2022-11-12T08:53:04.343Z,46.70
2022-11-12T08:55:30.824Z,46.70
2022-11-12T08:57:57.276Z,46.70
2022-11-12T09:00:23.756Z,46.90
2022-11-12T09:02:50.222Z,46.90
2022-11-12T09:05:16.691Z,46.70
2022-11-12T09:07:50.118Z,46.90
2022-11-12T09:10:17.243Z,46.80
2022-11-12T09:12:43.706Z,47.00
2022-11-12T09:15:36.418Z,46.80
2022-11-12T09:17:59.170Z,46.80
2022-11-12T09:20:25.643Z,46.80
2022-11-12T09:22:52.112Z,46.90
2022-11-12T09:25:18.589Z,47.00
2022-11-12T09:27:48.472Z,46.90
2022-11-12T09:30:15.196Z,46.80
2022-11-12T09:32:41.678Z,47.00
2022-11-12T09:35:08.135Z,47.00
2022-11-12T09:37:34.588Z,46.90
2022-11-12T09:40:01.056Z,46.90
2022-11-12T09:42:27.529Z,46.90
2022-11-12T09:44:53.998Z,47.00
2022-11-12T09:47:20.445Z,47.10
2022-11-12T09:49:46.907Z,47.10
2022-11-12T09:52:13.377Z,47.10
2022-11-12T09:54:39.848Z,47.20
2022-11-12T09:57:06.302Z,47.20
2022-11-12T09:59:32.780Z,47.30
2022-11-12T10:01:59.318Z,47.30
2022-11-12T10:04:25.854Z,47.40
2022-11-12T10:06:52.342Z,47.40
2022-11-12T10:09:18.838Z,47.40
2022-11-12T10:11:45.305Z,47.40
2022-11-12T10:14:11.801Z,47.20
2022-11-12T10:16:38.267Z,47.40
2022-11-12T10:19:04.758Z,47.40
2022-11-12T10:21:31.201Z,47.40
2022-11-12T10:23:57.682Z,47.40
2022-11-12T10:26:24.160Z,47.50
2022-11-12T10:28:50.621Z,47.50
2022-11-12T10:31:17.088Z,47.50
2022-11-12T10:33:43.569Z,47.60
2022-11-12T10:36:10.032Z,47.50
2022-11-12T10:38:36.493Z,47.50
2022-11-12T10:41:06.809Z,47.60
2022-11-12T10:43:37.061Z,47.70
2022-11-12T10:46:03.535Z,47.60
2022-11-12T10:48:30.414Z,47.80
2022-11-12T10:50:57.139Z,47.80
2022-11-12T10:53:23.578Z,47.80
2022-11-12T10:55:50.042Z,47.90
2022-11-12T10:58:16.505Z,47.80
2022-11-12T11:00:42.976Z,47.90
2022-11-12T11:03:09.433Z,48.10
2022-11-12T11:05:35.909Z,48.10
2022-11-12T11:08:02.364Z,48.10
2022-11-12T11:10:28.835Z,48.10
2022-11-12T11:12:55.307Z,48.20
2022-11-12T11:15:21.777Z,48.10
2022-11-12T11:17:48.245Z,48.20
2022-11-12T11:20:14.763Z,48.30
2022-11-12T11:22:41.279Z,48.20
2022-11-12T11:25:07.735Z,48.30
2022-11-12T11:27:34.210Z,48.30
2022-11-12T11:30:00.680Z,48.30
2022-11-12T11:32:27.134Z,48.40
2022-11-12T11:34:53.607Z,48.40
2022-11-12T11:37:20.070Z,48.40
2022-11-12T11:39:46.554Z,48.50
2022-11-12T11:42:12.994Z,48.50
2022-11-12T11:44:39.438Z,48.50
2022-11-12T11:47:05.919Z,48.50
2022-11-12T11:49:32.386Z,48.70
2022-11-12T11:51:58.840Z,48.60
2022-11-12T11:54:25.305Z,48.60
2022-11-12T11:56:51.773Z,48.70
2022-11-12T11:59:18.239Z,48.80
2022-11-12T12:01:44.693Z,48.70
2022-11-12T12:04:11.207Z,48.70
2022-11-12T12:06:37.780Z,48.80
2022-11-12T12:09:04.256Z,48.90
2022-11-12T12:11:30.740Z,48.80
2022-11-12T12:13:57.206Z,48.80
2022-11-12T12:16:23.676Z,48.90
2022-11-12T12:18:50.138Z,48.90
2022-11-12T12:21:16.603Z,48.90
2022-11-12T12:23:43.044Z,48.90
2022-11-12T12:26:09.510Z,48.90
2022-11-12T12:28:36.296Z,49.00
2022-11-12T12:31:02.755Z,49.10
2022-11-12T12:33:29.214Z,49.00
2022-11-12T12:35:59.409Z,49.00
2022-11-12T12:38:26.244Z,49.10
2022-11-12T12:40:52.869Z,49.10
2022-11-12T12:43:19.325Z,49.20
2022-11-12T12:45:47.369Z,49.10
2022-11-12T12:48:13.820Z,49.10
2022-11-12T12:50:40.283Z,49.20
2022-11-12T12:53:06.747Z,49.20
2022-11-12T12:55:33.213Z,49.30
2022-11-12T12:57:59.674Z,49.20
2022-11-12T13:00:26.147Z,49.20
2022-11-12T13:02:52.637Z,49.30
2022-11-12T13:05:19.091Z,49.30
2022-11-12T13:07:45.580Z,49.40
2022-11-12T13:10:12.044Z,49.30
2022-11-12T13:12:38.516Z,49.40
2022-11-12T13:15:04.981Z,49.50
2022-11-12T13:17:31.456Z,49.50
2022-11-12T13:19:57.922Z,49.40
2022-11-12T13:22:24.395Z,49.50
2022-11-12T13:24:50.880Z,49.50
2022-11-12T13:27:17.340Z,49.50
2022-11-12T13:29:43.816Z,49.60
2022-11-12T13:32:10.304Z,49.50
2022-11-12T13:34:36.767Z,49.60
2022-11-12T13:37:03.250Z,49.60
2022-11-12T13:39:29.718Z,49.60
2022-11-12T13:41:56.174Z,49.60
2022-11-12T13:44:22.619Z,49.70
2022-11-12T13:46:49.088Z,49.80
2022-11-12T13:49:15.529Z,49.70
2022-11-12T13:51:42.000Z,49.80
2022-11-12T13:54:08.472Z,49.80
2022-11-12T13:56:34.930Z,49.80
2022-11-12T13:59:01.430Z,49.90
2022-11-12T14:01:27.941Z,49.80
2022-11-12T14:03:54.473Z,49.90
2022-11-12T14:06:20.955Z,50.00
2022-11-12T14:08:47.432Z,49.90
2022-11-12T14:11:13.931Z,50.00
2022-11-12T14:13:40.377Z,50.00
2022-11-12T14:16:06.865Z,50.00
2022-11-12T14:18:33.329Z,50.10
2022-11-12T14:20:59.808Z,50.10
2022-11-12T14:23:26.264Z,50.10
2022-11-12T14:25:52.783Z,50.10
2022-11-12T14:28:19.232Z,50.00
2022-11-12T14:30:45.693Z,50.10
2022-11-12T14:33:12.174Z,50.10
2022-11-12T14:35:38.623Z,50.10
2022-11-12T14:38:05.095Z,50.20
2022-11-12T14:40:31.563Z,50.10
2022-11-12T14:42:58.044Z,50.20
2022-11-12T14:45:24.508Z,50.20
2022-11-12T14:47:50.973Z,50.20
2022-11-12T14:50:17.437Z,50.30
2022-11-12T14:52:43.888Z,50.20
2022-11-12T14:55:10.345Z,50.20
2022-11-12T14:57:36.798Z,50.30
2022-11-12T15:00:03.287Z,50.30
2022-11-12T15:02:43.936Z,50.40
2022-11-12T15:05:16.229Z,50.30
2022-11-12T15:07:42.683Z,50.40
2022-11-12T15:10:09.141Z,50.20
2022-11-12T15:12:35.593Z,50.40
2022-11-12T15:15:02.062Z,50.40
2022-11-12T15:17:28.530Z,50.40
2022-11-12T15:19:54.975Z,50.50
2022-11-12T15:22:22.281Z,50.40
2022-11-12T15:24:48.834Z,50.50
2022-11-12T15:27:15.350Z,50.40
2022-11-12T15:29:41.803Z,50.50
2022-11-12T15:32:13.369Z,50.50
2022-11-12T15:34:40.283Z,50.50
2022-11-12T15:37:06.773Z,50.50
2022-11-12T15:39:33.253Z,50.40
2022-11-12T15:41:59.743Z,50.50
2022-11-12T15:44:26.198Z,50.50
2022-11-12T15:46:52.657Z,50.50
2022-11-12T15:49:19.122Z,50.50
2022-11-12T15:51:45.592Z,50.50
2022-11-12T15:54:12.048Z,50.50
2022-11-12T15:56:38.509Z,50.60
2022-11-12T15:59:04.975Z,50.50
2022-11-12T16:01:31.469Z,50.50
2022-11-12T16:03:57.978Z,50.50
2022-11-12T16:06:24.444Z,50.60
2022-11-12T16:08:50.910Z,50.60
2022-11-12T16:11:17.364Z,50.60
2022-11-12T16:13:43.833Z,50.60
2022-11-12T16:16:11.519Z,50.60
2022-11-12T16:18:37.948Z,50.70
2022-11-12T16:21:04.416Z,50.70
2022-11-12T16:23:30.926Z,50.70
2022-11-12T16:25:57.446Z,50.80
2022-11-12T16:28:23.900Z,50.70
2022-11-12T16:30:50.366Z,50.70
2022-11-12T16:33:16.833Z,50.60
2022-11-12T16:35:43.305Z,50.60
2022-11-12T16:38:09.790Z,50.70
2022-11-12T16:40:36.244Z,50.70
2022-11-12T16:43:02.703Z,50.60
2022-11-12T16:45:29.153Z,50.60
2022-11-12T16:47:55.608Z,50.60
2022-11-12T16:50:22.060Z,50.60
2022-11-12T16:52:48.548Z,50.60
2022-11-12T16:55:15.013Z,50.60
2022-11-12T16:57:41.475Z,50.60
2022-11-12T17:00:07.932Z,50.70
2022-11-12T17:02:36.925Z,50.70
2022-11-12T17:05:07.167Z,50.60
2022-11-12T17:07:33.625Z,50.60
2022-11-12T17:10:00.108Z,50.70
2022-11-12T17:12:26.565Z,50.60
2022-11-12T17:14:53.051Z,50.70
2022-11-12T17:17:19.494Z,50.70
2022-11-12T17:19:45.947Z,50.70
2022-11-12T17:22:12.391Z,50.70
2022-11-12T17:24:38.857Z,50.60
2022-11-12T17:27:05.330Z,50.70
2022-11-12T17:29:31.804Z,50.70
2022-11-12T17:31:58.254Z,50.80
2022-11-12T17:34:24.748Z,50.80
2022-11-12T17:36:51.218Z,50.70
2022-11-12T17:39:17.700Z,50.80
2022-11-12T17:41:44.147Z,50.80
2022-11-12T17:44:10.602Z,50.80
2022-11-12T17:46:37.073Z,50.90
2022-11-12T17:49:03.538Z,50.80
2022-11-12T17:51:30.016Z,50.80
2022-11-12T17:53:56.500Z,50.80
2022-11-12T17:56:22.984Z,50.80
2022-11-12T17:58:49.456Z,50.80
2022-11-12T18:01:15.961Z,50.90
2022-11-12T18:03:42.487Z,50.80
2022-11-12T18:06:08.960Z,50.80
2022-11-12T18:08:36.742Z,50.70
2022-11-12T18:11:03.194Z,50.80
2022-11-12T18:13:30.014Z,50.70
2022-11-12T18:15:56.637Z,50.70
2022-11-12T18:18:23.121Z,50.80
2022-11-12T18:20:49.583Z,50.80
2022-11-12T18:23:16.047Z,50.70
2022-11-12T18:25:42.514Z,50.70
2022-11-12T18:28:08.965Z,50.70
2022-11-12T18:30:35.438Z,50.60
2022-11-12T18:33:01.901Z,50.70
2022-11-12T18:35:29.992Z,50.70
2022-11-12T18:37:56.701Z,50.90
2022-11-12T18:40:23.165Z,50.90
2022-11-12T18:42:49.623Z,50.90
2022-11-12T18:45:16.100Z,51.00
2022-11-12T18:47:42.544Z,51.00
2022-11-12T18:50:09.290Z,51.10
2022-11-12T18:52:35.885Z,51.10
2022-11-12T18:55:02.377Z,51.10
2022-11-12T18:57:29.641Z,51.10
2022-11-12T18:59:56.108Z,51.20
2022-11-12T19:02:22.578Z,51.20
2022-11-12T19:04:49.066Z,51.20
2022-11-12T19:07:15.577Z,51.20
2022-11-12T19:09:42.086Z,51.20
2022-11-12T19:12:08.562Z,51.20
2022-11-12T19:14:35.037Z,51.20
2022-11-12T19:17:01.497Z,51.20
2022-11-12T19:19:27.970Z,51.20
2022-11-12T19:21:54.446Z,51.10
2022-11-12T19:24:20.909Z,51.00
2022-11-12T19:26:47.368Z,51.10
2022-11-12T19:29:13.855Z,50.90
2022-11-12T19:31:40.328Z,50.90
2022-11-12T19:34:06.830Z,50.90
2022-11-12T19:36:33.285Z,50.90
2022-11-12T19:38:59.769Z,50.70
2022-11-12T19:41:26.236Z,50.80
2022-11-12T19:43:52.711Z,50.80
2022-11-12T19:46:19.186Z,50.80
2022-11-12T19:48:45.671Z,50.80
2022-11-12T19:51:12.125Z,50.70
2022-11-12T19:53:38.581Z,50.70
2022-11-12T19:56:05.038Z,50.80
2022-11-12T19:58:31.654Z,50.70
2022-11-12T20:00:58.299Z,50.50
2022-11-12T20:03:24.816Z,50.60
2022-11-12T20:05:51.284Z,50.60
2022-11-12T20:08:17.736Z,50.50
2022-11-12T20:10:44.197Z,50.60
2022-11-12T20:13:10.661Z,50.50
2022-11-12T20:15:37.119Z,50.70
2022-11-12T20:18:03.586Z,50.30
2022-11-12T20:20:30.045Z,50.60
2022-11-12T20:22:56.491Z,50.50
2022-11-12T20:25:22.961Z,50.70
2022-11-12T20:27:49.516Z,50.70
2022-11-12T20:30:16.035Z,50.70
2022-11-12T20:32:42.516Z,50.60
2022-11-12T20:35:17.749Z,50.60
2022-11-12T20:37:45.981Z,50.60
2022-11-12T20:40:12.440Z,50.40
2022-11-12T20:42:38.961Z,50.50
2022-11-12T20:45:05.435Z,50.50
2022-11-12T20:47:31.890Z,50.40
2022-11-12T20:49:58.343Z,50.20
2022-11-12T20:52:24.805Z,50.40
2022-11-12T20:54:51.280Z,50.30
2022-11-12T20:57:17.728Z,50.30
2022-11-12T20:59:44.198Z,50.30
2022-11-12T21:02:10.671Z,50.40
2022-11-12T21:04:37.231Z,50.10
2022-11-12T21:07:05.440Z,50.40
2022-11-12T21:09:32.179Z,50.30
2022-11-12T21:11:58.634Z,50.20
2022-11-12T21:14:25.093Z,50.30
2022-11-12T21:16:51.569Z,50.20
2022-11-12T21:19:18.017Z,50.20
2022-11-12T21:21:44.488Z,50.20
2022-11-12T21:24:10.963Z,50.20
2022-11-12T21:26:37.421Z,50.20
2022-11-12T21:29:03.891Z,50.20
2022-11-12T21:31:30.365Z,50.20
2022-11-12T21:33:56.835Z,50.10
2022-11-12T21:36:23.298Z,50.00
2022-11-12T21:38:49.790Z,50.20
2022-11-12T21:41:16.271Z,50.00
2022-11-12T21:43:42.734Z,50.10
2022-11-12T21:46:09.196Z,50.10
2022-11-12T21:48:35.684Z,50.00
2022-11-12T21:51:02.175Z,50.00
2022-11-12T21:53:28.661Z,50.10
2022-11-12T21:55:55.131Z,50.10
2022-11-12T21:58:21.690Z,49.90
2022-11-12T22:00:48.166Z,50.00
2022-11-12T22:03:14.902Z,49.90
2022-11-12T22:05:41.382Z,50.00
2022-11-12T22:08:07.858Z,49.90
2022-11-12T22:10:34.327Z,49.90
2022-11-12T22:15:47.256Z,49.80
2022-11-12T22:18:13.729Z,49.80
2022-11-12T22:20:40.185Z,50.00
2022-11-12T22:23:06.642Z,49.90
2022-11-12T22:25:33.121Z,49.90
2022-11-12T22:27:59.592Z,49.90
2022-11-12T22:30:26.055Z,49.90
2022-11-12T22:32:53.020Z,49.80
2022-11-12T22:35:19.509Z,49.80
2022-11-12T22:37:45.954Z,49.70
2022-11-12T22:40:13.703Z,49.80
2022-11-12T22:42:40.299Z,49.80
2022-11-12T22:45:06.752Z,49.80
2022-11-12T22:47:33.205Z,49.70
2022-11-12T22:49:59.660Z,49.70
2022-11-12T22:52:26.110Z,49.80
2022-11-12T22:54:52.581Z,49.70
2022-11-12T22:57:19.052Z,49.80
2022-11-12T22:59:45.542Z,49.70
2022-11-12T23:02:12.009Z,49.70
2022-11-12T23:04:38.462Z,49.70
2022-11-12T23:07:04.969Z,49.70
2022-11-12T23:09:31.494Z,49.70
2022-11-12T23:11:57.930Z,49.70
2022-11-12T23:14:24.402Z,49.50
2022-11-12T23:16:50.856Z,49.50
2022-11-12T23:19:17.327Z,49.40
2022-11-12T23:21:43.780Z,49.50
2022-11-12T23:24:10.259Z,49.60
2022-11-12T23:26:36.716Z,49.40
2022-11-12T23:29:03.212Z,49.50
2022-11-12T23:31:29.670Z,49.30
2022-11-12T23:33:56.158Z,49.40
2022-11-12T23:36:22.618Z,49.30
2022-11-12T23:38:49.102Z,49.40
2022-11-12T23:41:15.576Z,49.50
2022-11-12T23:43:42.065Z,49.30
2022-11-12T23:46:08.524Z,49.30
2022-11-12T23:48:34.987Z,49.00
2022-11-12T23:51:01.441Z,49.20
2022-11-12T23:53:27.902Z,49.00
2022-11-12T23:55:54.365Z,49.20
2022-11-12T23:58:20.817Z,49.00
